Time;durP1;ratioP1;P1;durP2;ratioP2;P2;SDS_P1;SDS_P2;PMS_P1;PMS_P2;Temp;Humidity;BMP_temperature;BMP_pressure;BME280_temperature;BME280_humidity;BME280_pressure;Samples;Min_cycle;Max_cycle;Signal;HPM_P1;HPM_P2
2021/01/26 00:00:15;;;;;;;2.08;1.88;;;6.40;79.70;;;;;;4934707;29;20044;-78
2021/01/26 00:02:41;;;;;;;1.70;1.60;;;6.40;79.70;;;;;;4923699;29;20044;-78
2021/01/26 00:05:08;;;;;;;1.98;1.70;;;6.40;79.70;;;;;;4918048;29;20024;-78
2021/01/26 00:07:34;;;;;;;2.00;1.80;;;6.40;79.70;;;;;;4935521;29;20099;-78
2021/01/26 00:10:00;;;;;;;1.90;1.50;;;6.40;79.70;;;;;;4911211;29;20362;-78
2021/01/26 00:12:27;;;;;;;2.13;1.60;;;6.40;79.70;;;;;;4899628;29;20102;-78
2021/01/26 00:14:53;;;;;;;2.58;1.70;;;6.40;79.70;;;;;;4919295;29;20028;-77
2021/01/26 00:17:18;;;;;;;2.95;1.50;;;6.40;79.70;;;;;;4919373;29;20054;-78
2021/01/26 00:19:44;;;;;;;1.73;1.55;;;6.40;79.70;;;;;;4918996;29;20476;-78
2021/01/26 00:22:10;;;;;;;2.22;1.85;;;6.40;79.70;;;;;;4919159;29;20036;-78
2021/01/26 00:24:36;;;;;;;2.40;1.70;;;6.40;79.70;;;;;;4915112;29;20027;-78
2021/01/26 00:27:02;;;;;;;1.50;1.40;;;6.30;79.60;;;;;;4919391;29;20040;-78
2021/01/26 00:29:28;;;;;;;1.55;1.40;;;6.30;79.60;;;;;;4928905;29;20024;-78
2021/01/26 00:31:55;;;;;;;1.42;1.33;;;6.40;79.70;;;;;;4950592;29;20504;-78
2021/01/26 00:34:21;;;;;;;1.42;1.30;;;6.30;79.70;;;;;;4903112;29;20067;-78
2021/01/26 00:36:46;;;;;;;3.00;1.58;;;6.30;79.70;;;;;;4916718;29;20031;-78
2021/01/26 00:39:12;;;;;;;1.52;1.42;;;6.30;79.70;;;;;;4925628;29;20039;-78
2021/01/26 00:41:38;;;;;;;3.35;1.90;;;6.30;79.70;;;;;;4902061;29;20047;-78
2021/01/26 00:44:04;;;;;;;2.05;1.52;;;6.30;79.70;;;;;;4926270;29;20522;-78
2021/01/26 00:46:29;;;;;;;2.75;1.60;;;6.30;80.30;;;;;;4899615;29;20098;-78
2021/01/26 00:48:55;;;;;;;3.78;1.80;;;6.30;79.70;;;;;;4927738;29;20035;-78
2021/01/26 00:51:21;;;;;;;3.05;1.50;;;6.30;79.60;;;;;;4912931;29;20039;-78
2021/01/26 00:53:47;;;;;;;2.65;1.58;;;6.30;79.60;;;;;;4933968;29;20086;-78
2021/01/26 00:56:13;;;;;;;2.17;1.70;;;6.30;79.60;;;;;;4916839;29;20031;-78
2021/01/26 00:58:41;;;;;;;3.53;1.60;;;6.30;79.70;;;;;;4918408;29;20046;-78
2021/01/26 01:01:10;;;;;;;1.73;1.48;;;6.30;79.70;;;;;;4886473;29;20575;-77
2021/01/26 01:03:38;;;;;;;1.38;1.27;;;6.30;79.70;;;;;;4902259;29;20043;-79
2021/01/26 01:06:04;;;;;;;1.67;1.50;;;6.30;79.70;;;;;;4930749;29;20111;-79
2021/01/26 01:08:30;;;;;;;3.03;1.60;;;6.30;79.70;;;;;;4896282;29;20042;-78
2021/01/26 01:10:56;;;;;;;2.47;1.48;;;6.30;79.60;;;;;;4918320;29;20028;-78
2021/01/26 01:13:23;;;;;;;1.70;1.50;;;6.30;79.60;;;;;;4917895;29;20055;-78
2021/01/26 01:15:48;;;;;;;2.35;1.45;;;6.30;79.60;;;;;;4918253;29;20408;-78
2021/01/26 01:18:14;;;;;;;1.60;1.40;;;6.30;79.70;;;;;;4934719;29;20038;-78
2021/01/26 01:20:40;;;;;;;1.60;1.50;;;6.30;79.70;;;;;;4934479;29;20043;-78
2021/01/26 01:23:06;;;;;;;3.47;1.60;;;6.30;79.60;;;;;;4918310;29;20528;-78
2021/01/26 01:25:32;;;;;;;1.70;1.60;;;6.30;79.60;;;;;;4933932;29;20032;-79
2021/01/26 01:27:58;;;;;;;2.78;1.50;;;6.30;79.60;;;;;;4916408;29;20640;-78
2021/01/26 01:30:27;;;;;;;3.03;1.83;;;6.30;79.70;;;;;;4934072;29;20092;-79
2021/01/26 01:32:53;;;;;;;2.95;1.60;;;6.20;79.60;;;;;;4914944;29;20513;-79
2021/01/26 01:35:19;;;;;;;1.60;1.50;;;6.20;79.60;;;;;;4933444;29;20123;-78
2021/01/26 01:37:46;;;;;;;5.53;1.80;;;6.20;79.60;;;;;;4934115;29;20477;-78
2021/01/26 01:40:19;;;;;;;2.00;1.50;;;6.20;79.60;;;;;;4927891;29;20044;-78
2021/01/26 01:42:47;;;;;;;3.95;1.88;;;6.20;79.70;;;;;;4935190;29;20545;-78
2021/01/26 01:45:14;;;;;;;3.40;2.00;;;6.20;79.60;;;;;;4903695;29;20129;-77
2021/01/26 01:47:46;;;;;;;2.20;1.48;;;6.20;79.60;;;;;;4908669;29;20083;-78
2021/01/26 01:50:29;;;;;;;3.58;1.73;;;6.20;79.60;;;;;;4930403;29;20091;-78
2021/01/26 01:53:01;;;;;;;2.70;1.88;;;6.20;79.60;;;;;;4933763;29;20020;-79
2021/01/26 01:55:31;;;;;;;2.10;1.90;;;6.20;79.60;;;;;;4917897;29;20023;-78
2021/01/26 01:58:10;;;;;;;3.85;2.00;;;6.20;79.60;;;;;;4935328;29;20036;-78
2021/01/26 02:00:37;;;;;;;4.13;1.75;;;6.10;79.70;;;;;;4936624;29;20115;-78
2021/01/26 02:03:13;;;;;;;3.00;1.65;;;6.20;79.60;;;;;;4920593;29;20398;-78
2021/01/26 02:05:41;;;;;;;1.77;1.48;;;6.20;79.70;;;;;;4937505;29;20058;-78
2021/01/26 02:08:18;;;;;;;3.85;1.60;;;6.20;79.70;;;;;;4921876;29;20036;-78
2021/01/26 02:10:43;;;;;;;2.85;1.60;;;6.20;79.70;;;;;;4937677;29;20027;-78
2021/01/26 02:13:09;;;;;;;2.05;1.50;;;6.20;79.70;;;;;;4945057;29;20094;-78
2021/01/26 02:15:35;;;;;;;2.47;1.40;;;6.10;79.60;;;;;;4937588;29;20054;-78
2021/01/26 02:18:01;;;;;;;3.25;1.67;;;6.20;79.70;;;;;;4921060;29;20179;-79
2021/01/26 02:20:32;;;;;;;2.97;2.15;;;6.20;79.70;;;;;;4935946;29;20046;-78
2021/01/26 02:23:09;;;;;;;2.22;1.42;;;6.20;79.70;;;;;;4932390;29;20032;-82
2021/01/26 02:25:56;;;;;;;3.00;1.50;;;6.20;79.70;;;;;;4927774;29;20042;-78
2021/01/26 02:28:34;;;;;;;3.60;1.60;;;6.20;79.70;;;;;;4923377;29;20136;-78
2021/01/26 02:31:28;;;;;;;2.47;1.58;;;6.20;79.70;;;;;;4930970;29;20063;-78
2021/01/26 02:34:03;;;;;;;4.47;1.50;;;6.20;79.80;;;;;;4938163;29;20079;-78
2021/01/26 02:36:47;;;;;;;2.75;1.55;;;6.10;79.70;;;;;;4919555;29;20025;-78
2021/01/26 02:39:25;;;;;;;3.58;1.48;;;6.10;79.70;;;;;;4918104;29;20044;-77
2021/01/26 02:42:08;;;;;;;4.25;1.60;;;6.10;79.70;;;;;;4936053;29;20023;-78
2021/01/26 02:44:40;;;;;;;2.33;1.50;;;6.10;79.70;;;;;;4932177;29;20028;-77
2021/01/26 02:47:44;;;;;;;4.97;1.83;;;6.10;79.70;;;;;;4936581;29;20038;-77
2021/01/26 02:50:27;;;;;;;2.95;1.63;;;6.10;79.80;;;;;;4933055;29;20119;-78
2021/01/26 02:53:13;;;;;;;2.00;1.50;;;6.10;79.70;;;;;;4918104;29;20043;-77
2021/01/26 02:55:51;;;;;;;1.58;1.35;;;6.10;79.70;;;;;;4925614;29;20035;-78
2021/01/26 02:58:50;;;;;;;1.50;1.40;;;6.10;79.70;;;;;;4933506;29;20055;-78
2021/01/26 03:01:18;;;;;;;2.58;1.30;;;6.10;79.80;;;;;;4910764;29;20136;-78
2021/01/26 03:03:49;;;;;;;2.78;1.40;;;6.10;79.60;;;;;;4936506;29;20032;-78
2021/01/26 03:06:27;;;;;;;2.70;1.52;;;6.10;79.70;;;;;;4933716;29;20060;-78
2021/01/26 03:09:11;;;;;;;2.63;1.45;;;6.10;79.80;;;;;;4935329;29;20087;-79
2021/01/26 03:11:53;;;;;;;3.17;1.67;;;6.10;79.80;;;;;;4931060;29;20020;-78
2021/01/26 03:14:32;;;;;;;3.47;1.33;;;6.10;79.70;;;;;;4935697;29;20032;-78
2021/01/26 03:17:12;;;;;;;2.10;1.30;;;6.10;79.70;;;;;;4933998;29;20091;-77
2021/01/26 03:19:39;;;;;;;2.75;1.50;;;6.10;79.80;;;;;;4936819;29;20036;-78
2021/01/26 03:22:08;;;;;;;3.47;1.70;;;6.10;79.70;;;;;;4937442;29;20184;-78
2021/01/26 03:24:40;;;;;;;1.90;1.33;;;6.10;79.80;;;;;;4932628;29;20031;-77
2021/01/26 03:27:18;;;;;;;1.77;1.42;;;6.10;79.80;;;;;;4931564;29;20099;-78
2021/01/26 03:29:47;;;;;;;3.67;1.38;;;6.10;79.80;;;;;;4952028;29;20079;-77
2021/01/26 03:32:25;;;;;;;1.95;1.40;;;6.10;79.80;;;;;;4935089;29;20024;-78
2021/01/26 03:34:50;;;;;;;1.95;1.67;;;6.10;79.80;;;;;;4934883;29;20035;-78
2021/01/26 03:37:16;;;;;;;1.67;1.33;;;6.10;79.70;;;;;;4918454;29;20036;-78
2021/01/26 03:39:42;;;;;;;2.60;1.60;;;6.10;79.80;;;;;;4920255;29;20135;-78
2021/01/26 03:42:08;;;;;;;3.53;1.63;;;6.10;79.80;;;;;;4921247;29;20083;-78
2021/01/26 03:44:34;;;;;;;1.90;1.25;;;6.10;79.80;;;;;;4936153;29;20032;-79
2021/01/26 03:47:24;;;;;;;2.03;1.40;;;6.10;79.80;;;;;;4919405;29;20040;-78
2021/01/26 03:50:31;;;;;;;1.63;1.40;;;6.10;79.80;;;;;;4928590;29;20118;-78
2021/01/26 03:53:33;;;;;;;2.28;1.20;;;6.10;79.80;;;;;;4884365;29;20553;-77
2021/01/26 03:56:25;;;;;;;1.95;1.23;;;6.10;79.80;;;;;;4935139;29;20065;-77
2021/01/26 03:59:42;;;;;;;1.23;1.15;;;6.10;79.80;;;;;;4935548;29;20036;-78
2021/01/26 04:02:14;;;;;;;1.40;1.30;;;6.00;79.80;;;;;;4902310;29;20041;-78
2021/01/26 04:04:50;;;;;;;2.38;1.20;;;6.00;79.60;;;;;;4932569;29;20039;-79
2021/01/26 04:07:41;;;;;;;2.45;1.40;;;6.00;79.70;;;;;;4915223;29;20468;-78
2021/01/26 04:10:28;;;;;;;1.95;1.30;;;6.00;79.80;;;;;;4935602;29;20039;-79
2021/01/26 04:13:01;;;;;;;1.55;1.30;;;6.00;79.80;;;;;;4933055;29;20050;-77
2021/01/26 04:15:35;;;;;;;2.50;1.80;;;6.00;79.70;;;;;;4904578;29;20024;-77
2021/01/26 04:18:01;;;;;;;2.40;1.70;;;6.00;79.70;;;;;;4909341;29;20036;-78
2021/01/26 04:20:33;;;;;;;2.83;1.50;;;6.00;79.70;;;;;;4907878;29;20036;-78
2021/01/26 04:23:00;;;;;;;1.55;1.20;;;6.00;79.80;;;;;;4919673;29;20114;-77
2021/01/26 04:25:28;;;;;;;1.30;1.20;;;6.00;79.70;;;;;;4950790;29;20144;-77
2021/01/26 04:27:53;;;;;;;3.97;1.40;;;6.00;79.70;;;;;;4917664;29;20035;-78
2021/01/26 04:30:20;;;;;;;2.00;1.48;;;6.00;79.70;;;;;;4935059;29;20042;-78
2021/01/26 04:32:46;;;;;;;1.38;1.27;;;6.00;79.70;;;;;;4935088;29;20438;-78
2021/01/26 04:35:12;;;;;;;1.77;1.30;;;6.00;79.80;;;;;;4927490;29;20024;-78
2021/01/26 04:37:38;;;;;;;2.10;1.30;;;6.00;79.80;;;;;;4919060;29;20356;-77
2021/01/26 04:40:05;;;;;;;1.30;1.20;;;6.00;79.70;;;;;;4919019;29;20047;-77
2021/01/26 04:42:36;;;;;;;1.85;1.60;;;6.00;79.80;;;;;;4924341;29;20036;-77
2021/01/26 04:45:08;;;;;;;1.35;1.25;;;6.10;79.80;;;;;;4915812;29;20070;-77
2021/01/26 04:47:59;;;;;;;2.38;1.13;;;6.00;79.80;;;;;;4915776;29;20171;-77
2021/01/26 04:50:35;;;;;;;1.30;1.20;;;6.00;79.80;;;;;;4914973;29;20031;-78
2021/01/26 04:53:27;;;;;;;1.33;1.23;;;6.00;79.80;;;;;;4926440;29;20135;-77
2021/01/26 04:56:13;;;;;;;1.63;1.20;;;6.00;79.90;;;;;;4918485;29;20028;-77
2021/01/26 04:58:51;;;;;;;3.63;1.45;;;6.00;79.80;;;;;;4917916;29;20036;-78
2021/01/26 05:01:35;;;;;;;1.85;1.15;;;6.00;79.80;;;;;;4917367;29;20484;-78
2021/01/26 05:04:20;;;;;;;2.30;1.60;;;6.00;79.80;;;;;;4915320;29;20028;-78
2021/01/26 05:07:00;;;;;;;2.10;1.38;;;6.00;79.80;;;;;;4912776;29;20099;-78
2021/01/26 05:09:51;;;;;;;2.30;1.30;;;6.00;79.80;;;;;;4932216;29;20032;-77
2021/01/26 05:12:21;;;;;;;2.25;1.27;;;6.00;79.80;;;;;;4911666;29;20059;-77
2021/01/26 05:14:52;;;;;;;1.70;1.15;;;6.00;79.80;;;;;;4922052;29;20032;-78
2021/01/26 05:17:28;;;;;;;2.83;1.30;;;6.00;79.90;;;;;;4917241;29;20081;-78
2021/01/26 05:20:12;;;;;;;2.45;1.20;;;6.00;79.90;;;;;;4934368;29;20031;-77
2021/01/26 05:22:52;;;;;;;1.25;1.10;;;6.00;79.90;;;;;;4914332;29;20101;-78
2021/01/26 05:25:21;;;;;;;2.72;1.40;;;6.00;79.90;;;;;;4927429;29;20032;-75
2021/01/26 05:27:50;;;;;;;2.03;1.27;;;6.10;79.90;;;;;;4906446;29;20027;-75
2021/01/26 05:30:33;;;;;;;1.50;1.27;;;6.10;79.90;;;;;;4916898;29;20039;-76
2021/01/26 05:33:04;;;;;;;2.42;1.27;;;6.10;80.00;;;;;;4927880;29;20020;-78
2021/01/26 05:35:29;;;;;;;1.65;1.27;;;6.00;79.80;;;;;;4939471;29;20039;-75
2021/01/26 05:37:55;;;;;;;2.20;1.35;;;6.10;79.80;;;;;;4930317;29;20035;-76
2021/01/26 05:40:26;;;;;;;1.30;1.20;;;6.10;79.90;;;;;;4911542;29;20036;-75
2021/01/26 05:42:59;;;;;;;2.53;1.50;;;6.10;79.90;;;;;;4925054;29;20036;-75
2021/01/26 05:45:32;;;;;;;1.88;1.30;;;6.10;79.90;;;;;;4928716;29;20461;-75
2021/01/26 05:48:01;;;;;;;2.80;1.60;;;6.10;79.90;;;;;;4936077;29;20033;-78
2021/01/26 05:50:29;;;;;;;2.50;1.35;;;6.10;79.80;;;;;;4914455;29;20024;-76
2021/01/26 05:53:05;;;;;;;3.03;1.50;;;6.10;79.80;;;;;;4917251;29;20114;-78
2021/01/26 05:55:34;;;;;;;1.75;1.30;;;6.10;79.80;;;;;;4923680;29;20401;-78
2021/01/26 05:58:12;;;;;;;1.45;1.30;;;6.10;79.90;;;;;;4931399;29;20027;-75
2021/01/26 06:00:39;;;;;;;1.60;1.27;;;6.10;79.90;;;;;;4930364;29;20382;-75
2021/01/26 06:03:04;;;;;;;1.58;1.20;;;6.10;79.80;;;;;;4931092;29;20577;-75
2021/01/26 06:05:30;;;;;;;1.45;1.35;;;6.10;79.80;;;;;;4931153;29;20107;-76
2021/01/26 06:08:11;;;;;;;1.52;1.30;;;6.10;79.80;;;;;;4933294;29;20372;-76
2021/01/26 06:10:41;;;;;;;1.33;1.20;;;6.20;80.00;;;;;;4919936;29;20033;-75
2021/01/26 06:13:08;;;;;;;2.25;1.10;;;6.20;79.90;;;;;;4939411;29;20059;-75
2021/01/26 06:15:39;;;;;;;2.50;1.35;;;6.20;79.90;;;;;;4934056;29;20107;-75
2021/01/26 06:18:17;;;;;;;1.38;1.25;;;6.20;79.90;;;;;;4918550;29;20035;-75
2021/01/26 06:21:00;;;;;;;2.83;1.20;;;6.20;79.90;;;;;;4933335;29;20083;-76
2021/01/26 06:23:28;;;;;;;1.73;1.30;;;6.20;79.80;;;;;;4932723;29;20473;-75
2021/01/26 06:25:58;;;;;;;2.28;1.30;;;6.20;79.90;;;;;;4914599;29;20525;-76
2021/01/26 06:28:40;;;;;;;2.45;1.10;;;6.20;79.90;;;;;;4930596;29;20059;-76
2021/01/26 06:31:36;;;;;;;1.58;1.10;;;6.20;79.80;;;;;;4934338;29;20473;-75
2021/01/26 06:34:11;;;;;;;;;;;6.20;79.90;;;;;;4928514;29;20188;-75
2021/01/26 06:36:50;;;;;;;2.00;1.25;;;6.10;79.70;;;;;;4933687;29;20334;-77
2021/01/26 06:39:51;;;;;;;1.17;1.10;;;6.20;79.70;;;;;;4942375;29;20039;-75
2021/01/26 06:42:29;;;;;;;2.80;1.40;;;6.20;79.80;;;;;;4916182;29;20067;-76
2021/01/26 06:45:32;;;;;;;1.80;1.20;;;6.20;79.90;;;;;;4935886;29;20036;-76
2021/01/26 06:48:04;;;;;;;1.95;1.30;;;6.20;80.00;;;;;;4921194;29;20039;-75
2021/01/26 06:50:47;;;;;;;1.42;1.30;;;6.20;79.90;;;;;;4937906;29;20032;-76
2021/01/26 06:53:49;;;;;;;1.35;1.13;;;6.20;79.90;;;;;;4936892;29;20472;-77
2021/01/26 06:56:26;;;;;;;3.30;1.40;;;6.20;80.00;;;;;;4937044;29;20035;-76
2021/01/26 06:59:00;;;;;;;2.92;1.27;;;6.20;80.00;;;;;;4936663;29;20023;-76
2021/01/26 07:01:28;;;;;;;1.63;1.23;;;6.10;79.90;;;;;;4920617;29;20544;-76
2021/01/26 07:04:20;;;;;;;1.48;1.20;;;6.20;80.50;;;;;;4937697;29;20030;-76
2021/01/26 07:07:06;;;;;;;2.72;1.20;;;6.20;80.10;;;;;;4936588;29;20028;-76
2021/01/26 07:09:53;;;;;;;2.10;1.20;;;6.20;79.90;;;;;;4937381;29;20039;-75
2021/01/26 07:12:30;;;;;;;1.20;1.10;;;6.20;80.00;;;;;;4920198;29;20051;-76
2021/01/26 07:15:09;;;;;;;1.30;1.20;;;6.20;79.90;;;;;;4935858;29;20087;-76
2021/01/26 07:17:55;;;;;;;2.03;1.15;;;6.20;79.90;;;;;;4924146;29;20032;-76
2021/01/26 07:20:45;;;;;;;2.33;1.15;;;6.20;80.00;;;;;;4946218;29;20247;-75
2021/01/26 07:23:16;;;;;;;1.33;1.20;;;6.20;80.00;;;;;;4928130;29;20532;-75
2021/01/26 07:25:59;;;;;;;2.10;1.20;;;6.20;79.90;;;;;;4924324;29;20043;-77
2021/01/26 07:28:43;;;;;;;3.15;1.50;;;6.20;80.00;;;;;;4932120;29;20039;-78
2021/01/26 07:31:19;;;;;;;1.40;1.30;;;6.20;80.00;;;;;;4918987;29;20492;-76
2021/01/26 07:33:55;;;;;;;1.42;1.20;;;6.20;80.00;;;;;;4932798;29;20032;-76
2021/01/26 07:36:37;;;;;;;2.15;1.20;;;6.20;80.00;;;;;;4935402;29;20028;-75
2021/01/26 07:39:23;;;;;;;1.70;1.40;;;6.20;79.90;;;;;;4935950;29;20381;-78
2021/01/26 07:42:06;;;;;;;1.52;1.40;;;6.20;80.00;;;;;;4936513;29;20044;-77
2021/01/26 07:44:45;;;;;;;1.48;1.27;;;6.20;80.00;;;;;;4944580;29;20031;-77
2021/01/26 07:47:11;;;;;;;1.13;1.10;;;6.30;80.00;;;;;;4923138;29;20067;-78
2021/01/26 07:49:48;;;;;;;1.45;1.00;;;6.20;79.90;;;;;;4935328;29;20062;-77
2021/01/26 07:52:17;;;;;;;1.00;1.00;;;6.30;80.10;;;;;;4931591;29;20033;-76
2021/01/26 07:54:54;;;;;;;1.40;1.15;;;6.30;80.00;;;;;;4942679;29;20046;-78
2021/01/26 07:57:28;;;;;;;2.13;1.35;;;6.20;80.00;;;;;;4924828;29;20035;-76
2021/01/26 07:59:58;;;;;;;1.58;1.20;;;6.30;80.00;;;;;;4932319;29;20028;-78
2021/01/26 08:02:29;;;;;;;1.00;1.00;;;6.30;80.00;;;;;;4916166;29;20465;-76
2021/01/26 08:04:55;;;;;;;2.08;1.40;;;6.30;80.00;;;;;;4919841;29;20023;-78
2021/01/26 08:07:27;;;;;;;1.27;1.15;;;6.30;79.90;;;;;;4919547;29;20388;-78
2021/01/26 08:09:53;;;;;;;1.90;1.20;;;6.30;80.00;;;;;;4932173;29;20062;-77
2021/01/26 08:12:29;;;;;;;1.00;1.00;;;6.30;79.90;;;;;;4916909;29;20074;-77
2021/01/26 08:15:29;;;;;;;1.83;1.30;;;6.20;79.90;;;;;;4934945;29;20032;-77
2021/01/26 08:17:54;;;;;;;1.23;1.10;;;6.30;80.00;;;;;;4923138;29;20481;-78
2021/01/26 08:20:20;;;;;;;1.48;1.38;;;6.30;79.90;;;;;;4935342;29;20032;-78
2021/01/26 08:22:55;;;;;;;1.33;1.23;;;6.30;79.90;;;;;;4934931;29;20388;-78
2021/01/26 08:25:34;;;;;;;;;;;6.30;79.90;;;;;;4932432;29;20032;-78
2021/01/26 08:28:02;;;;;;;1.27;1.20;;;6.30;79.90;;;;;;4922407;29;19910;-77
2021/01/26 08:30:49;;;;;;;2.33;1.33;;;6.30;79.70;;;;;;4935352;29;20107;-79
2021/01/26 08:33:17;;;;;;;1.30;1.20;;;6.20;80.00;;;;;;4950518;29;20476;-77
2021/01/26 08:36:05;;;;;;;1.40;1.20;;;6.30;79.90;;;;;;4934765;29;20032;-81
2021/01/26 08:38:51;;;;;;;1.65;1.30;;;6.30;80.10;;;;;;4911706;29;20487;-77
2021/01/26 08:41:49;;;;;;;1.15;1.10;;;6.20;80.00;;;;;;4931181;29;20070;-76
2021/01/26 08:44:21;;;;;;;1.30;1.20;;;6.20;80.00;;;;;;4926619;29;20028;-77
2021/01/26 08:46:50;;;;;;;1.10;1.10;;;6.30;80.00;;;;;;4930698;29;20114;-77
2021/01/26 08:49:29;;;;;;;2.03;1.42;;;6.20;79.90;;;;;;4918625;29;20034;-77
2021/01/26 08:52:21;;;;;;;1.48;1.30;;;6.30;80.00;;;;;;4917967;29;20033;-77
2021/01/26 08:54:52;;;;;;;1.83;1.42;;;6.20;80.00;;;;;;4935508;29;20035;-77
2021/01/26 08:57:30;;;;;;;2.03;1.30;;;6.20;79.90;;;;;;4915532;29;20071;-77
2021/01/26 09:00:25;;;;;;;3.28;1.30;;;6.30;80.00;;;;;;4934740;29;20473;-77
2021/01/26 09:02:52;;;;;;;1.73;1.33;;;6.30;80.10;;;;;;4906797;29;20056;-77
2021/01/26 09:05:40;;;;;;;3.00;1.77;;;6.30;79.90;;;;;;4931263;29;20087;-77
2021/01/26 09:08:07;;;;;;;1.73;1.40;;;6.30;80.10;;;;;;4951067;28;20089;-77
2021/01/26 09:10:47;;;;;;;1.30;1.10;;;6.30;80.00;;;;;;4939061;29;20031;-77
2021/01/26 09:13:26;;;;;;;1.45;1.33;;;6.30;80.00;;;;;;4930657;29;20410;-77
2021/01/26 09:16:00;;;;;;;1.17;1.15;;;6.30;80.00;;;;;;4933096;29;20043;-76
2021/01/26 09:18:27;;;;;;;1.95;1.33;;;6.30;80.00;;;;;;4933859;29;20115;-77
2021/01/26 09:21:06;;;;;;;1.40;1.30;;;6.30;80.00;;;;;;4916819;29;20095;-79
2021/01/26 09:23:33;;;;;;;1.10;1.00;;;6.30;80.00;;;;;;4935487;29;20043;-77
2021/01/26 09:25:59;;;;;;;4.40;1.35;;;6.30;80.00;;;;;;4932698;29;20473;-76
2021/01/26 09:28:27;;;;;;;1.85;1.33;;;6.30;80.00;;;;;;4911975;29;20040;-76
2021/01/26 09:30:59;;;;;;;2.33;1.70;;;6.30;80.00;;;;;;4917442;29;20032;-77
2021/01/26 09:33:29;;;;;;;1.40;1.30;;;6.40;80.10;;;;;;4928333;29;20032;-81
2021/01/26 09:36:05;;;;;;;1.40;1.27;;;6.40;80.10;;;;;;4933878;29;20032;-76
2021/01/26 09:38:34;;;;;;;2.08;1.40;;;6.40;80.20;;;;;;4933245;29;20111;-75
2021/01/26 09:41:05;;;;;;;1.40;1.30;;;6.40;80.10;;;;;;4916878;29;20062;-76
2021/01/26 09:43:38;;;;;;;1.40;1.30;;;6.40;80.10;;;;;;4934887;29;20028;-75
2021/01/26 09:46:08;;;;;;;1.58;1.27;;;6.40;80.10;;;;;;4929360;29;20062;-75
2021/01/26 09:48:44;;;;;;;1.75;1.30;;;6.40;80.10;;;;;;4915677;29;20127;-77
2021/01/26 09:51:12;;;;;;;2.20;1.30;;;6.40;80.10;;;;;;4921559;29;20488;-75
2021/01/26 09:53:39;;;;;;;1.75;1.40;;;6.50;80.10;;;;;;4917747;29;20024;-75
2021/01/26 09:56:06;;;;;;;1.40;1.30;;;6.40;80.70;;;;;;4932518;29;20126;-75
2021/01/26 09:58:33;;;;;;;1.50;1.40;;;6.50;80.10;;;;;;4933916;29;20024;-75
2021/01/26 10:01:00;;;;;;;2.13;1.50;;;6.50;80.10;;;;;;4912506;29;20039;-75
2021/01/26 10:03:27;;;;;;;1.90;1.48;;;6.50;80.10;;;;;;4932705;29;20032;-75
2021/01/26 10:05:56;;;;;;;1.30;1.20;;;6.60;80.10;;;;;;4928892;29;20532;-75
2021/01/26 10:08:25;;;;;;;1.40;1.30;;;6.60;80.10;;;;;;4917089;29;20041;-76
2021/01/26 10:10:51;;;;;;;1.40;1.30;;;6.60;80.10;;;;;;4933060;29;20032;-76
2021/01/26 10:13:23;;;;;;;1.58;1.38;;;6.60;80.00;;;;;;4949305;29;20060;-76
2021/01/26 10:15:49;;;;;;;2.38;1.50;;;6.60;80.00;;;;;;4933018;29;20059;-75
2021/01/26 10:18:19;;;;;;;1.40;1.30;;;6.70;80.00;;;;;;4933676;29;20035;-75
2021/01/26 10:20:44;;;;;;;1.30;1.20;;;6.70;80.00;;;;;;4921048;29;20107;-76
2021/01/26 10:23:23;;;;;;;1.30;1.20;;;6.70;80.00;;;;;;4937893;29;20031;-75
2021/01/26 10:25:50;;;;;;;1.35;1.25;;;6.70;80.00;;;;;;4910787;29;20371;-75
2021/01/26 10:28:27;;;;;;;2.53;1.30;;;6.70;79.90;;;;;;4919964;29;20027;-76
2021/01/26 10:30:54;;;;;;;1.55;1.40;;;6.70;80.00;;;;;;4928139;29;20024;-75
2021/01/26 10:33:40;;;;;;;1.33;1.23;;;6.80;79.90;;;;;;4934086;29;20036;-75
2021/01/26 10:36:24;;;;;;;;;;;6.80;80.00;;;;;;4925874;29;20032;-75
2021/01/26 10:38:51;;;;;;;2.25;1.20;;;6.80;79.80;;;;;;4932474;29;19914;-75
2021/01/26 10:41:33;;;;;;;1.50;1.30;;;6.80;79.70;;;;;;4951440;29;20028;-75
2021/01/26 10:44:04;;;;;;;2.08;1.40;;;6.80;79.90;;;;;;4926860;29;20023;-75
2021/01/26 10:46:36;;;;;;;1.38;1.17;;;6.80;79.90;;;;;;4928764;29;20027;-75
2021/01/26 10:49:20;;;;;;;1.20;1.10;;;6.80;80.00;;;;;;4936732;29;20040;-76
2021/01/26 10:51:46;;;;;;;1.70;1.23;;;6.80;80.00;;;;;;4935182;29;20035;-76
2021/01/26 10:54:12;;;;;;;1.25;1.13;;;6.90;79.90;;;;;;4937089;29;20023;-76
2021/01/26 10:56:38;;;;;;;2.88;1.50;;;6.90;80.00;;;;;;4936643;29;20488;-75
2021/01/26 10:59:04;;;;;;;1.25;1.15;;;6.90;79.90;;;;;;4936402;29;20176;-75
2021/01/26 11:01:31;;;;;;;1.55;1.40;;;6.90;80.00;;;;;;4936507;29;20473;-75
2021/01/26 11:03:57;;;;;;;1.25;1.15;;;6.90;79.90;;;;;;4936484;29;20424;-75
2021/01/26 11:06:24;;;;;;;1.88;1.30;;;6.90;79.90;;;;;;4936106;29;20412;-76
2021/01/26 11:08:51;;;;;;;1.30;1.20;;;7.00;79.90;;;;;;4928671;29;20047;-78
2021/01/26 11:11:21;;;;;;;1.50;1.40;;;7.00;79.90;;;;;;4934838;29;21339;-75
2021/01/26 11:13:47;;;;;;;2.42;1.20;;;7.00;79.90;;;;;;4935670;29;20516;-77
2021/01/26 11:16:14;;;;;;;1.88;1.20;;;7.00;79.90;;;;;;4919362;29;20040;-75
2021/01/26 11:18:40;;;;;;;1.67;1.30;;;7.10;79.90;;;;;;4940152;29;20083;-76
2021/01/26 11:21:05;;;;;;;1.70;1.35;;;7.10;80.60;;;;;;4932848;29;20472;-76
2021/01/26 11:23:31;;;;;;;1.30;1.20;;;7.10;79.90;;;;;;4920376;29;20036;-76
2021/01/26 11:25:59;;;;;;;2.03;1.40;;;7.10;79.90;;;;;;4920035;29;20120;-76
2021/01/26 11:28:25;;;;;;;1.42;1.30;;;7.10;79.90;;;;;;4932982;29;20204;-77
2021/01/26 11:30:50;;;;;;;1.38;1.30;;;7.20;79.90;;;;;;4914028;29;20478;-78
2021/01/26 11:33:16;;;;;;;1.52;1.27;;;7.20;79.90;;;;;;4922716;28;20395;-78
2021/01/26 11:35:42;;;;;;;2.13;1.42;;;7.20;79.90;;;;;;4942028;29;20046;-77
2021/01/26 11:38:07;;;;;;;1.63;1.40;;;7.20;79.90;;;;;;4946113;29;20036;-77
2021/01/26 11:40:33;;;;;;;1.65;1.40;;;7.20;79.80;;;;;;4938531;29;20040;-77
2021/01/26 11:42:59;;;;;;;2.45;1.40;;;7.30;79.90;;;;;;4938013;29;20424;-77
2021/01/26 11:45:31;;;;;;;2.67;1.40;;;7.30;79.90;;;;;;4933746;29;20039;-76
2021/01/26 11:47:57;;;;;;;1.30;1.10;;;7.30;79.90;;;;;;4936507;29;20524;-76
2021/01/26 11:50:23;;;;;;;2.25;1.33;;;7.30;79.80;;;;;;4921281;29;20024;-77
2021/01/26 11:52:50;;;;;;;1.40;1.30;;;7.30;79.80;;;;;;4937285;29;20031;-76
2021/01/26 11:55:20;;;;;;;1.38;1.30;;;7.30;79.80;;;;;;4920655;29;20376;-77
2021/01/26 11:57:46;;;;;;;1.40;1.30;;;7.40;79.90;;;;;;4938446;29;20043;-77
2021/01/26 12:00:17;;;;;;;1.52;1.30;;;7.40;79.80;;;;;;4923210;29;20036;-77
2021/01/26 12:02:43;;;;;;;1.50;1.40;;;7.40;79.80;;;;;;4934269;29;20050;-76
2021/01/26 12:05:10;;;;;;;1.48;1.38;;;7.40;79.80;;;;;;4950560;28;20464;-77
2021/01/26 12:07:36;;;;;;;1.48;1.38;;;7.40;79.80;;;;;;4919308;29;20063;-77
2021/01/26 12:10:03;;;;;;;1.40;1.20;;;7.50;79.80;;;;;;4936258;29;20111;-76
2021/01/26 12:12:29;;;;;;;1.80;1.70;;;7.50;79.80;;;;;;4929088;29;20070;-76
2021/01/26 12:14:55;;;;;;;1.40;1.27;;;7.50;79.80;;;;;;4925063;29;20706;-77
2021/01/26 12:17:20;;;;;;;2.95;1.40;;;7.50;79.80;;;;;;4919578;29;20126;-77
2021/01/26 12:19:46;;;;;;;1.58;1.35;;;7.60;79.80;;;;;;4929838;29;20035;-77
2021/01/26 12:22:12;;;;;;;2.03;1.30;;;7.60;80.20;;;;;;4930750;29;20032;-77
2021/01/26 12:24:38;;;;;;;1.63;1.30;;;7.60;79.80;;;;;;4935004;29;20131;-77
2021/01/26 12:27:04;;;;;;;1.63;1.20;;;7.60;79.80;;;;;;4934967;29;20036;-77
2021/01/26 12:29:29;;;;;;;1.63;1.30;;;7.60;79.80;;;;;;4919059;29;20486;-77
2021/01/26 12:31:55;;;;;;;1.33;1.23;;;7.60;79.80;;;;;;4934670;29;20565;-77
2021/01/26 12:34:21;;;;;;;1.40;1.30;;;7.70;79.80;;;;;;4918971;29;20027;-77
2021/01/26 12:36:46;;;;;;;1.30;1.15;;;7.70;79.80;;;;;;4935108;29;20032;-77
2021/01/26 12:39:12;;;;;;;1.30;1.20;;;7.80;79.80;;;;;;4918824;29;20074;-77
2021/01/26 12:41:38;;;;;;;1.30;1.20;;;7.80;79.80;;;;;;4934121;29;20050;-77
2021/01/26 12:44:06;;;;;;;1.83;1.35;;;7.80;79.80;;;;;;4931352;29;20020;-76
2021/01/26 12:46:38;;;;;;;1.73;1.23;;;7.80;79.80;;;;;;4926823;29;20047;-76
2021/01/26 12:49:04;;;;;;;1.30;1.20;;;7.80;79.90;;;;;;4934509;29;20039;-75
2021/01/26 12:51:30;;;;;;;1.40;1.30;;;7.80;79.80;;;;;;4918596;29;20059;-77
2021/01/26 12:53:56;;;;;;;1.30;1.20;;;7.90;79.90;;;;;;4934942;29;20066;-77
2021/01/26 12:56:22;;;;;;;1.40;1.30;;;7.90;79.90;;;;;;4934779;29;20091;-77
2021/01/26 12:58:48;;;;;;;1.48;1.38;;;7.90;79.90;;;;;;4915519;29;20087;-76
2021/01/26 13:01:14;;;;;;;1.40;1.30;;;7.90;79.90;;;;;;4900486;29;20489;-75
2021/01/26 13:03:40;;;;;;;1.85;1.40;;;8.00;79.90;;;;;;4933246;29;20028;-76
2021/01/26 13:06:06;;;;;;;2.05;1.38;;;8.00;79.90;;;;;;4934157;29;20027;-76
2021/01/26 13:08:32;;;;;;;2.08;1.60;;;8.00;79.90;;;;;;4917747;29;20035;-75
2021/01/26 13:10:58;;;;;;;1.98;1.50;;;8.00;79.90;;;;;;4926097;29;20103;-77
2021/01/26 13:13:23;;;;;;;2.03;1.60;;;8.10;79.90;;;;;;4930894;29;20201;-78
2021/01/26 13:15:49;;;;;;;1.65;1.40;;;8.10;79.90;;;;;;4933565;29;20465;-78
2021/01/26 13:18:15;;;;;;;2.30;1.48;;;8.10;79.90;;;;;;4913395;29;20046;-77
2021/01/26 13:20:41;;;;;;;2.13;1.40;;;8.10;79.80;;;;;;4934628;29;20035;-77
2021/01/26 13:23:09;;;;;;;1.63;1.30;;;8.10;79.90;;;;;;4934191;29;20060;-76
2021/01/26 13:25:34;;;;;;;1.70;1.35;;;8.10;80.50;;;;;;4949503;29;20469;-76